createdAt,value
2023-09-10T00:00:30.867Z,19.58
2023-09-10T00:02:57.981Z,19.51
2023-09-10T00:05:25.214Z,19.46
2023-09-10T00:07:54.694Z,19.42
2023-09-10T00:10:21.736Z,19.37
2023-09-10T00:12:48.843Z,19.35
2023-09-10T00:15:16.018Z,19.34
2023-09-10T00:17:43.058Z,19.36
2023-09-10T00:20:11.693Z,19.38
2023-09-10T00:22:41.365Z,19.39
2023-09-10T00:25:08.526Z,19.40
2023-09-10T00:27:35.567Z,19.48
2023-09-10T00:30:03.008Z,19.57
2023-09-10T00:32:30.264Z,19.61
2023-09-10T00:34:57.340Z,19.63
2023-09-10T00:37:24.811Z,19.62
2023-09-10T00:39:51.932Z,19.64
2023-09-10T00:42:19.086Z,19.65
2023-09-10T00:44:46.369Z,19.67
2023-09-10T00:47:14.426Z,19.70
2023-09-10T00:49:42.362Z,19.71
2023-09-10T00:52:09.529Z,19.70
2023-09-10T00:54:37.458Z,19.67
2023-09-10T00:57:05.596Z,19.67
2023-09-10T00:59:32.838Z,19.64
2023-09-10T01:02:00.212Z,19.64
2023-09-10T01:04:27.515Z,19.61
2023-09-10T01:06:54.925Z,19.64
2023-09-10T01:09:27.289Z,19.66
2023-09-10T01:12:37.120Z,19.61
2023-09-10T01:15:31.376Z,19.56
2023-09-10T01:18:21.775Z,19.55
2023-09-10T01:21:07.572Z,19.58
2023-09-10T01:23:54.134Z,19.63
2023-09-10T01:26:21.189Z,19.66
2023-09-10T01:28:48.283Z,19.65
2023-09-10T01:31:15.632Z,19.63
2023-09-10T01:33:53.734Z,19.62
2023-09-10T01:36:40.012Z,19.59
2023-09-10T01:39:13.792Z,19.59
2023-09-10T01:41:44.911Z,19.60
2023-09-10T01:44:15.068Z,19.61
2023-09-10T01:46:43.964Z,19.61
2023-09-10T01:49:11.405Z,19.57
2023-09-10T01:51:38.560Z,19.55
2023-09-10T01:54:05.722Z,19.54
2023-09-10T01:56:32.791Z,19.54
2023-09-10T01:58:59.822Z,19.51
2023-09-10T02:01:26.975Z,19.48
2023-09-10T02:03:54.180Z,19.43
2023-09-10T02:06:21.325Z,19.42
2023-09-10T02:08:48.351Z,19.39
2023-09-10T02:11:15.546Z,19.32
2023-09-10T02:13:42.669Z,19.28
2023-09-10T02:16:10.094Z,19.27
2023-09-10T02:18:37.465Z,19.28
2023-09-10T02:21:12.880Z,19.32
2023-09-10T02:23:44.778Z,19.33
2023-09-10T02:26:12.120Z,19.37
2023-09-10T02:28:39.509Z,19.45
2023-09-10T02:31:09.855Z,19.47
2023-09-10T02:33:36.957Z,19.48
2023-09-10T02:36:04.729Z,19.48
2023-09-10T02:38:33.175Z,19.52
2023-09-10T02:41:01.008Z,19.54
2023-09-10T02:43:28.387Z,19.52
2023-09-10T02:45:55.730Z,19.45
2023-09-10T02:48:23.644Z,19.39
2023-09-10T02:50:50.730Z,19.37
2023-09-10T02:53:17.787Z,19.40
2023-09-10T02:55:44.897Z,19.42
2023-09-10T02:58:11.972Z,19.46
2023-09-10T03:00:40.108Z,19.47
2023-09-10T03:03:07.193Z,19.46
2023-09-10T03:05:35.645Z,19.45
2023-09-10T03:08:03.038Z,19.49
2023-09-10T03:10:30.140Z,19.53
2023-09-10T03:12:57.420Z,19.56
2023-09-10T03:15:25.770Z,19.54
2023-09-10T03:17:52.922Z,19.50
2023-09-10T03:20:20.129Z,19.45
2023-09-10T03:22:47.384Z,19.45
2023-09-10T03:25:14.592Z,19.46
2023-09-10T03:27:41.827Z,19.46
2023-09-10T03:30:09.502Z,19.49
2023-09-10T03:32:36.730Z,19.53
2023-09-10T03:35:05.672Z,19.58
2023-09-10T03:37:33.031Z,19.60
2023-09-10T03:40:00.047Z,19.63
2023-09-10T03:42:27.089Z,19.64
2023-09-10T03:44:54.324Z,19.59
2023-09-10T03:47:21.438Z,19.57
2023-09-10T03:49:48.598Z,19.55
2023-09-10T03:52:21.443Z,19.54
2023-09-10T03:54:49.339Z,19.55
2023-09-10T03:57:16.453Z,19.58
2023-09-10T03:59:43.868Z,19.60
2023-09-10T04:02:14.348Z,19.62
2023-09-10T04:04:42.870Z,19.65
2023-09-10T04:07:10.377Z,19.66
2023-09-10T04:09:37.392Z,19.67
2023-09-10T04:12:04.748Z,19.65
2023-09-10T04:14:32.165Z,19.64
2023-09-10T04:16:59.285Z,19.63
2023-09-10T04:19:26.362Z,19.65
2023-09-10T04:21:53.542Z,19.66
2023-09-10T04:24:20.671Z,19.65
2023-09-10T04:26:48.787Z,19.66
2023-09-10T04:29:16.082Z,19.70
2023-09-10T04:31:44.522Z,19.69
2023-09-10T04:34:12.826Z,19.70
2023-09-10T04:36:40.709Z,19.68
2023-09-10T04:39:10.598Z,19.72
2023-09-10T04:41:41.861Z,19.70
2023-09-10T04:44:09.619Z,19.72
2023-09-10T04:46:37.481Z,19.75
2023-09-10T04:49:04.904Z,19.75
2023-09-10T04:51:32.023Z,19.71
2023-09-10T04:54:00.241Z,19.69
2023-09-10T04:56:27.579Z,19.62
2023-09-10T04:58:54.741Z,19.59
2023-09-10T05:01:22.753Z,19.54
2023-09-10T05:03:50.024Z,19.46
2023-09-10T05:06:20.766Z,19.40
2023-09-10T05:08:47.902Z,19.35
2023-09-10T05:11:15.957Z,19.30
2023-09-10T05:13:43.187Z,19.28
2023-09-10T05:16:10.470Z,19.28
2023-09-10T05:18:40.987Z,19.34
2023-09-10T05:21:08.895Z,19.40
2023-09-10T05:23:36.069Z,19.41
2023-09-10T05:26:04.470Z,19.42
2023-09-10T05:28:32.537Z,19.39
2023-09-10T05:31:10.098Z,19.45
2023-09-10T05:33:39.719Z,19.49
2023-09-10T05:36:08.303Z,19.54
2023-09-10T05:38:35.585Z,19.58
2023-09-10T05:41:05.337Z,19.61
2023-09-10T05:43:32.830Z,19.61
2023-09-10T05:46:00.909Z,19.65
2023-09-10T05:48:28.375Z,19.67
2023-09-10T05:50:59.929Z,19.70
2023-09-10T05:53:29.809Z,19.74
2023-09-10T05:55:57.029Z,19.79
2023-09-10T05:58:25.598Z,19.85
2023-09-10T06:00:56.429Z,19.93
2023-09-10T06:03:25.389Z,19.98
2023-09-10T06:05:52.779Z,20.06
2023-09-10T06:08:20.113Z,20.09
2023-09-10T06:10:47.349Z,20.17
2023-09-10T06:13:14.480Z,20.26
2023-09-10T06:15:42.449Z,20.35
2023-09-10T06:18:09.955Z,20.42
2023-09-10T06:20:37.109Z,20.48
2023-09-10T06:23:04.686Z,20.56
2023-09-10T06:25:33.063Z,20.64
2023-09-10T06:28:00.318Z,20.75
2023-09-10T06:30:28.261Z,20.85
2023-09-10T06:32:55.478Z,20.93
2023-09-10T06:35:22.736Z,21.02
2023-09-10T06:37:50.070Z,21.12
2023-09-10T06:40:17.725Z,21.22
2023-09-10T06:42:46.776Z,21.31
2023-09-10T06:45:25.118Z,21.35
2023-09-10T06:47:52.164Z,21.40
2023-09-10T06:50:19.403Z,21.48
2023-09-10T06:52:46.531Z,21.56
2023-09-10T06:55:15.252Z,21.60
2023-09-10T06:57:44.720Z,21.66
2023-09-10T07:00:12.503Z,21.72
2023-09-10T07:02:39.623Z,21.79
2023-09-10T07:05:07.098Z,21.87
2023-09-10T07:07:34.178Z,21.98
2023-09-10T07:10:01.216Z,22.08
2023-09-10T07:12:28.312Z,22.19
2023-09-10T07:14:55.317Z,22.29
2023-09-10T07:17:22.455Z,22.37
2023-09-10T07:19:50.017Z,22.45
2023-09-10T07:22:17.124Z,22.55
2023-09-10T07:24:44.173Z,22.64
2023-09-10T07:27:11.360Z,22.72
2023-09-10T07:29:38.368Z,22.82
2023-09-10T07:32:05.846Z,22.91
2023-09-10T07:34:32.939Z,22.95
2023-09-10T07:36:59.974Z,23.03
2023-09-10T07:39:30.533Z,23.15
2023-09-10T07:41:57.964Z,23.24
2023-09-10T07:44:25.141Z,23.34
2023-09-10T07:46:53.805Z,23.47
2023-09-10T07:49:20.961Z,23.59
2023-09-10T07:51:48.010Z,23.68
2023-09-10T07:54:15.082Z,23.76
2023-09-10T07:56:42.104Z,23.85
2023-09-10T07:59:12.768Z,23.94
2023-09-10T08:01:40.313Z,24.01
2023-09-10T08:04:08.124Z,24.09
2023-09-10T08:06:35.291Z,24.20
2023-09-10T08:09:02.389Z,24.31
2023-09-10T08:11:29.622Z,24.40
2023-09-10T08:13:56.710Z,24.48
2023-09-10T08:16:23.968Z,24.56
2023-09-10T08:18:51.295Z,24.62
2023-09-10T08:21:18.445Z,24.72
2023-09-10T08:23:46.134Z,24.84
2023-09-10T08:26:13.456Z,24.97
2023-09-10T08:28:41.180Z,25.08
2023-09-10T08:31:08.485Z,25.18
2023-09-10T08:33:35.543Z,25.27
2023-09-10T08:36:02.690Z,25.36
2023-09-10T08:38:29.898Z,25.44
2023-09-10T08:40:59.804Z,25.56
2023-09-10T08:43:42.512Z,25.68
2023-09-10T08:46:11.861Z,25.82
2023-09-10T08:48:44.933Z,25.92
2023-09-10T08:51:14.153Z,26.01
2023-09-10T08:53:44.290Z,26.08
2023-09-10T08:56:12.824Z,26.13
2023-09-10T08:58:43.704Z,26.22
2023-09-10T09:01:13.312Z,26.32
2023-09-10T09:03:41.003Z,26.46
2023-09-10T09:06:09.410Z,26.57
2023-09-10T09:08:37.855Z,26.65
2023-09-10T09:11:10.203Z,26.78
2023-09-10T09:13:45.509Z,26.87
2023-09-10T09:16:13.753Z,26.93
2023-09-10T09:18:42.260Z,27.03
2023-09-10T09:21:18.157Z,27.13
2023-09-10T09:23:52.170Z,27.22
2023-09-10T09:26:20.035Z,27.30
2023-09-10T09:28:47.709Z,27.35
2023-09-10T09:31:15.202Z,27.47
2023-09-10T09:33:45.182Z,27.57
2023-09-10T09:36:12.798Z,27.66
2023-09-10T09:38:45.098Z,27.81
2023-09-10T09:41:15.353Z,27.92
2023-09-10T09:43:42.632Z,28.04
2023-09-10T09:46:10.836Z,28.18
2023-09-10T09:48:40.100Z,28.27
2023-09-10T09:51:07.605Z,28.34
2023-09-10T09:53:34.976Z,28.45
2023-09-10T09:56:06.009Z,28.54
2023-09-10T09:58:34.353Z,28.60
2023-09-10T10:01:02.256Z,28.70
2023-09-10T10:03:33.477Z,28.82
2023-09-10T10:06:02.687Z,28.91
2023-09-10T10:08:34.039Z,28.98
2023-09-10T10:11:01.334Z,29.03
2023-09-10T10:13:28.755Z,29.12
2023-09-10T10:15:57.561Z,29.23
2023-09-10T10:18:30.893Z,29.32
2023-09-10T10:21:04.619Z,29.40
2023-09-10T10:23:40.600Z,29.48
2023-09-10T10:26:12.028Z,29.53
2023-09-10T10:28:40.436Z,29.56
2023-09-10T10:31:18.984Z,29.62
2023-09-10T10:33:56.223Z,29.66
2023-09-10T10:36:56.736Z,29.69
2023-09-10T10:39:38.262Z,29.72
2023-09-10T10:42:10.852Z,29.76
2023-09-10T10:44:39.404Z,29.83
2023-09-10T10:47:20.426Z,29.91
2023-09-10T10:49:55.978Z,30.01
2023-09-10T10:52:32.860Z,30.10
2023-09-10T10:55:00.398Z,30.15
2023-09-10T10:57:30.802Z,30.18
2023-09-10T10:59:58.644Z,30.22
2023-09-10T11:02:26.017Z,30.28
2023-09-10T11:05:04.177Z,30.35
2023-09-10T11:07:33.511Z,30.37
2023-09-10T11:10:30.555Z,30.45
2023-09-10T11:13:09.052Z,30.55
2023-09-10T11:15:36.823Z,30.64
2023-09-10T11:18:40.880Z,30.76
2023-09-10T11:21:09.858Z,30.80
2023-09-10T11:23:41.140Z,30.87
2023-09-10T11:26:14.727Z,30.99
2023-09-10T11:28:51.960Z,31.08
2023-09-10T11:31:34.443Z,31.13
2023-09-10T11:34:20.573Z,31.19
2023-09-10T11:36:58.024Z,31.28
2023-09-10T11:39:26.195Z,31.36
2023-09-10T11:41:55.871Z,31.40
2023-09-10T11:44:23.270Z,31.40
2023-09-10T11:46:54.927Z,31.50
2023-09-10T11:49:24.981Z,31.59
2023-09-10T11:51:56.889Z,31.64
2023-09-10T11:54:24.574Z,31.60
2023-09-10T11:56:56.690Z,31.65
2023-09-10T11:59:31.922Z,31.74
2023-09-10T12:02:00.631Z,31.86
2023-09-10T12:04:34.159Z,31.96
2023-09-10T12:07:02.776Z,31.96
2023-09-10T12:09:32.211Z,32.01
2023-09-10T12:12:15.212Z,32.13
2023-09-10T12:14:43.186Z,32.19
2023-09-10T12:17:11.404Z,32.22
2023-09-10T12:19:39.709Z,32.16
2023-09-10T12:22:12.036Z,32.19
2023-09-10T12:24:42.050Z,32.28
2023-09-10T12:27:10.675Z,32.45
2023-09-10T12:29:38.606Z,32.58
2023-09-10T12:32:06.514Z,32.61
2023-09-10T12:34:34.504Z,32.69
2023-09-10T12:37:01.604Z,32.70
2023-09-10T12:39:28.989Z,32.75
2023-09-10T12:42:04.957Z,32.83
2023-09-10T12:44:34.974Z,32.92
2023-09-10T12:47:02.489Z,32.92
2023-09-10T12:49:30.354Z,33.04
2023-09-10T12:51:57.364Z,33.08
2023-09-10T12:54:24.996Z,33.22
2023-09-10T12:56:53.010Z,33.17
2023-09-10T12:59:22.124Z,33.10
2023-09-10T13:01:50.952Z,33.05
2023-09-10T13:04:18.520Z,33.01
2023-09-10T13:06:49.199Z,33.11
2023-09-10T13:09:17.632Z,33.23
2023-09-10T13:11:44.781Z,33.30
2023-09-10T13:14:11.875Z,33.36
2023-09-10T13:16:38.905Z,33.36
2023-09-10T13:19:06.215Z,33.34
2023-09-10T13:21:34.803Z,33.34
2023-09-10T13:24:02.064Z,33.37
2023-09-10T13:26:29.369Z,33.30
2023-09-10T13:28:56.445Z,33.32
2023-09-10T13:31:23.545Z,33.29
2023-09-10T13:33:51.663Z,33.24
2023-09-10T13:36:18.738Z,33.18
2023-09-10T13:38:45.869Z,33.14
2023-09-10T13:41:13.370Z,33.08
2023-09-10T13:43:40.970Z,33.01
2023-09-10T13:46:08.724Z,32.96
2023-09-10T13:48:35.967Z,32.91
2023-09-10T13:51:03.343Z,32.95
2023-09-10T13:53:30.803Z,33.14
2023-09-10T13:56:00.742Z,33.32
2023-09-10T13:58:27.876Z,33.48
2023-09-10T14:00:54.903Z,33.57
2023-09-10T14:03:27.553Z,33.63
2023-09-10T14:05:55.735Z,33.62
2023-09-10T14:08:22.899Z,33.64
2023-09-10T14:10:50.058Z,33.66
2023-09-10T14:13:17.193Z,33.63
2023-09-10T14:15:44.426Z,33.57
2023-09-10T14:18:12.344Z,33.58
2023-09-10T14:20:39.561Z,33.65
2023-09-10T14:23:06.923Z,33.72
2023-09-10T14:25:34.533Z,33.67
2023-09-10T14:28:01.586Z,33.65
2023-09-10T14:30:28.858Z,33.65
2023-09-10T14:32:56.075Z,33.70
2023-09-10T14:35:23.461Z,33.72
2023-09-10T14:37:50.959Z,33.74
2023-09-10T14:40:18.763Z,33.81
2023-09-10T14:42:46.035Z,33.85
2023-09-10T14:45:13.350Z,33.72
2023-09-10T14:47:40.759Z,33.71
2023-09-10T14:50:13.970Z,33.74
2023-09-10T14:52:45.480Z,33.82
2023-09-10T14:55:13.420Z,33.85
2023-09-10T14:57:40.953Z,33.90
2023-09-10T15:00:08.735Z,33.92
2023-09-10T15:02:38.261Z,33.81
2023-09-10T15:05:09.303Z,33.72
2023-09-10T15:07:36.532Z,33.66
2023-09-10T15:10:04.308Z,33.65
2023-09-10T15:12:31.554Z,33.58
2023-09-10T15:14:58.637Z,33.54
2023-09-10T15:17:25.693Z,33.48
2023-09-10T15:19:52.834Z,33.53
2023-09-10T15:22:19.852Z,33.57
2023-09-10T15:24:47.046Z,33.62
2023-09-10T15:27:14.076Z,33.63
2023-09-10T15:29:41.175Z,33.62
2023-09-10T15:32:08.831Z,33.56
2023-09-10T15:34:35.863Z,33.48
2023-09-10T15:37:02.966Z,33.30
2023-09-10T15:39:30.369Z,33.17
2023-09-10T15:41:57.552Z,33.11
2023-09-10T15:44:24.931Z,33.07
2023-09-10T15:46:52.116Z,32.96
2023-09-10T15:49:19.812Z,32.85
2023-09-10T15:51:47.008Z,32.69
2023-09-10T15:54:14.345Z,32.59
2023-09-10T15:56:41.500Z,32.50
2023-09-10T15:59:09.947Z,32.37
2023-09-10T16:01:37.383Z,32.27
2023-09-10T16:04:05.025Z,32.18
2023-09-10T16:06:34.878Z,32.16
2023-09-10T16:09:04.799Z,32.11
2023-09-10T16:11:33.683Z,32.09
2023-09-10T16:14:01.002Z,32.04
2023-09-10T16:16:28.720Z,32.03
2023-09-10T16:18:59.593Z,31.98
2023-09-10T16:21:28.246Z,31.93
2023-09-10T16:23:55.400Z,31.88
2023-09-10T16:26:22.846Z,31.80
2023-09-10T16:28:49.867Z,31.70
2023-09-10T16:31:17.248Z,31.66
2023-09-10T16:33:44.366Z,31.65
2023-09-10T16:36:11.410Z,31.61
2023-09-10T16:38:38.472Z,31.57
2023-09-10T16:41:05.579Z,31.54
2023-09-10T16:43:32.682Z,31.51
2023-09-10T16:45:59.810Z,31.49
2023-09-10T16:48:26.980Z,31.46
2023-09-10T16:50:54.232Z,31.42
2023-09-10T16:53:21.293Z,31.38
2023-09-10T16:55:54.076Z,31.33
2023-09-10T16:58:23.492Z,31.27
2023-09-10T17:00:51.089Z,31.20
2023-09-10T17:03:18.324Z,31.15
2023-09-10T17:05:46.043Z,31.08
2023-09-10T17:08:13.259Z,30.99
2023-09-10T17:10:40.390Z,30.92
2023-09-10T17:13:07.654Z,30.81
2023-09-10T17:15:35.504Z,30.70
2023-09-10T17:18:03.375Z,30.58
2023-09-10T17:20:33.609Z,30.47
2023-09-10T17:23:02.005Z,30.34
2023-09-10T17:25:29.288Z,30.22
2023-09-10T17:27:58.236Z,30.09
2023-09-10T17:30:25.249Z,29.96
2023-09-10T17:32:59.655Z,29.81
2023-09-10T17:35:28.157Z,29.63
2023-09-10T17:37:55.624Z,29.48
2023-09-10T17:40:26.974Z,29.33
2023-09-10T17:42:53.984Z,29.21
2023-09-10T17:45:22.042Z,29.07
2023-09-10T17:47:49.156Z,28.95
2023-09-10T17:50:16.328Z,28.85
2023-09-10T17:52:43.490Z,28.72
2023-09-10T17:55:10.571Z,28.60
2023-09-10T17:57:37.602Z,28.46
2023-09-10T18:00:07.608Z,28.33
2023-09-10T18:02:34.870Z,28.20
2023-09-10T18:05:04.327Z,28.08
2023-09-10T18:07:33.362Z,27.97
2023-09-10T18:10:00.985Z,27.86
2023-09-10T18:12:28.224Z,27.76
2023-09-10T18:14:55.379Z,27.65
2023-09-10T18:17:22.593Z,27.53
2023-09-10T18:19:49.729Z,27.41
2023-09-10T18:22:16.954Z,27.33
2023-09-10T18:24:45.035Z,27.27
2023-09-10T18:27:12.180Z,27.21
2023-09-10T18:29:40.190Z,27.15
2023-09-10T18:32:07.943Z,27.09
2023-09-10T18:34:35.493Z,27.00
2023-09-10T18:37:02.602Z,26.94
2023-09-10T18:39:29.807Z,26.90
2023-09-10T18:41:58.367Z,26.83
2023-09-10T18:44:25.461Z,26.74
2023-09-10T18:46:57.371Z,26.65
2023-09-10T18:49:24.662Z,26.54
2023-09-10T18:52:15.568Z,26.44
2023-09-10T18:54:44.043Z,26.37
2023-09-10T18:57:14.849Z,26.32
2023-09-10T18:59:43.018Z,26.29
2023-09-10T19:02:10.535Z,26.24
2023-09-10T19:04:38.156Z,26.20
2023-09-10T19:07:08.163Z,26.17
2023-09-10T19:09:35.676Z,26.14
2023-09-10T19:12:03.093Z,26.12
2023-09-10T19:14:31.674Z,26.11
2023-09-10T19:16:58.809Z,26.09
2023-09-10T19:19:25.920Z,26.07
2023-09-10T19:21:52.979Z,26.05
2023-09-10T19:24:20.065Z,26.01
2023-09-10T19:26:47.166Z,26.00
2023-09-10T19:29:14.230Z,26.00
2023-09-10T19:31:42.276Z,26.00
2023-09-10T19:34:09.846Z,25.98
2023-09-10T19:36:37.034Z,25.96
2023-09-10T19:39:10.861Z,25.98
2023-09-10T19:41:39.402Z,25.96
2023-09-10T19:44:09.063Z,25.93
2023-09-10T19:46:37.485Z,25.90
2023-09-10T19:49:04.858Z,25.87
2023-09-10T19:51:32.038Z,25.84
2023-09-10T19:53:59.154Z,25.80
2023-09-10T19:56:28.391Z,25.79
2023-09-10T19:59:12.907Z,25.79
2023-09-10T20:01:45.134Z,25.77
2023-09-10T20:04:13.239Z,25.73
2023-09-10T20:06:42.688Z,25.68
2023-09-10T20:09:09.897Z,25.66
2023-09-10T20:11:37.867Z,25.62
2023-09-10T20:14:07.382Z,25.58
2023-09-10T20:16:35.284Z,25.57
2023-09-10T20:19:02.364Z,25.56
2023-09-10T20:21:29.496Z,25.54
2023-09-10T20:23:56.596Z,25.48
2023-09-10T20:26:25.045Z,25.46
2023-09-10T20:28:52.190Z,25.45
2023-09-10T20:31:19.326Z,25.39
2023-09-10T20:33:47.170Z,25.35
2023-09-10T20:36:14.448Z,25.32
2023-09-10T20:38:41.976Z,25.28
2023-09-10T20:41:17.314Z,25.23
2023-09-10T20:43:44.963Z,25.19
2023-09-10T20:46:13.256Z,25.16
2023-09-10T20:48:41.281Z,25.09
2023-09-10T20:51:09.788Z,25.05
2023-09-10T20:53:38.544Z,25.02
2023-09-10T20:56:05.735Z,25.00
2023-09-10T20:58:32.869Z,24.98
2023-09-10T21:01:00.356Z,24.95
2023-09-10T21:03:30.350Z,24.92
2023-09-10T21:05:59.419Z,24.89
2023-09-10T21:08:27.488Z,24.87
2023-09-10T21:10:54.831Z,24.83
2023-09-10T21:13:21.891Z,24.79
2023-09-10T21:15:49.278Z,24.76
2023-09-10T21:18:20.098Z,24.73
2023-09-10T21:20:47.225Z,24.72
2023-09-10T21:23:14.387Z,24.70
2023-09-10T21:25:42.759Z,24.68
2023-09-10T21:28:10.336Z,24.69
2023-09-10T21:30:37.437Z,24.65
2023-09-10T21:33:06.333Z,24.63
2023-09-10T21:35:34.175Z,24.58
2023-09-10T21:38:01.307Z,24.57
2023-09-10T21:40:28.347Z,24.52
2023-09-10T21:42:55.381Z,24.47
2023-09-10T21:45:22.446Z,24.44
2023-09-10T21:47:49.570Z,24.43
2023-09-10T21:50:16.662Z,24.38
2023-09-10T21:52:43.689Z,24.37
2023-09-10T21:55:10.724Z,24.31
2023-09-10T21:57:37.763Z,24.28
2023-09-10T22:00:05.823Z,24.24
2023-09-10T22:02:33.076Z,24.21
2023-09-10T22:05:00.411Z,24.20
2023-09-10T22:07:27.486Z,24.17
2023-09-10T22:09:55.375Z,24.11
2023-09-10T22:12:22.659Z,24.04
2023-09-10T22:14:50.180Z,24.01
2023-09-10T22:17:17.273Z,24.00
2023-09-10T22:19:44.350Z,23.99
2023-09-10T22:22:11.815Z,24.00
2023-09-10T22:24:38.948Z,24.00
2023-09-10T22:27:06.050Z,23.98
2023-09-10T22:29:33.144Z,23.94
2023-09-10T22:32:00.239Z,23.90
2023-09-10T22:34:27.263Z,23.88
2023-09-10T22:36:55.430Z,23.85
2023-09-10T22:39:22.511Z,23.84
2023-09-10T22:41:49.565Z,23.81
2023-09-10T22:44:16.730Z,23.77
2023-09-10T22:46:43.800Z,23.70
2023-09-10T22:49:10.815Z,23.66
2023-09-10T22:51:38.711Z,23.60
2023-09-10T22:54:05.841Z,23.56
2023-09-10T22:56:33.125Z,23.54
2023-09-10T22:59:00.345Z,23.49
2023-09-10T23:01:27.925Z,23.46
2023-09-10T23:03:55.332Z,23.39
2023-09-10T23:06:22.645Z,23.36
2023-09-10T23:08:49.732Z,23.30
2023-09-10T23:11:16.971Z,23.24
2023-09-10T23:13:44.150Z,23.18
2023-09-10T23:16:11.331Z,23.10
2023-09-10T23:18:38.589Z,23.03
2023-09-10T23:21:05.859Z,22.98
2023-09-10T23:23:32.938Z,22.94
2023-09-10T23:26:02.411Z,22.91
2023-09-10T23:28:30.481Z,22.91
2023-09-10T23:30:57.585Z,22.88
2023-09-10T23:33:24.662Z,22.88
2023-09-10T23:35:52.297Z,22.83
2023-09-10T23:38:19.433Z,22.78
2023-09-10T23:40:57.813Z,22.76
2023-09-10T23:43:26.024Z,22.74
2023-09-10T23:45:53.542Z,22.73
2023-09-10T23:48:20.821Z,22.71
2023-09-10T23:50:48.062Z,22.71
2023-09-10T23:53:15.131Z,22.71
2023-09-10T23:55:42.241Z,22.70
2023-09-10T23:58:09.289Z,22.68
